createdAt,value
2023-03-10T08:26:22.436Z,1.60
2023-03-10T08:27:23.816Z,0.68
2023-03-10T08:28:25.720Z,0.60
2023-03-10T08:35:43.690Z,0.68
2023-03-10T08:36:45.248Z,0.80
2023-03-10T08:37:46.798Z,0.80
2023-03-10T08:38:49.217Z,1.10
2023-03-10T08:39:53.685Z,1.30
2023-03-10T08:40:55.136Z,0.85
2023-03-10T08:41:56.615Z,0.70
2023-03-10T08:42:58.116Z,0.60
2023-03-10T08:44:00.482Z,0.60
2023-03-10T08:45:03.170Z,0.80
2023-03-10T08:46:06.188Z,0.70
2023-03-10T08:47:09.540Z,0.68
2023-03-10T08:48:11.102Z,0.65
2023-03-10T08:49:14.630Z,1.02
2023-03-10T08:50:16.286Z,1.15
2023-03-10T08:51:18.200Z,0.75
2023-03-10T08:52:19.596Z,0.70
2023-03-10T08:53:21.136Z,0.60
2023-03-10T08:54:23.771Z,0.70
2023-03-10T08:55:25.347Z,0.70
2023-03-10T08:56:27.118Z,0.50
2023-03-10T08:57:28.657Z,1.05
2023-03-10T08:58:30.373Z,1.00
2023-03-10T08:59:32.542Z,1.00
2023-03-10T09:00:34.636Z,0.80
2023-03-10T09:01:38.087Z,0.93
2023-03-10T09:02:40.240Z,0.90
2023-03-10T09:03:44.254Z,0.90
2023-03-10T09:04:45.914Z,0.93
2023-03-10T09:05:47.697Z,1.02
2023-03-10T09:06:49.457Z,1.02
2023-03-10T09:07:51.067Z,0.80
2023-03-10T09:08:53.470Z,0.82
2023-03-10T09:09:55.161Z,1.00
2023-03-10T09:10:56.790Z,0.90
2023-03-10T09:11:58.202Z,0.93
2023-03-10T09:13:13.007Z,1.85
2023-03-10T09:14:18.946Z,0.80
2023-03-10T09:20:28.279Z,1.30
2023-03-10T09:21:33.614Z,1.20
2023-03-10T09:22:35.686Z,1.75
2023-03-10T09:45:14.568Z,1.00
2023-03-10T09:46:24.689Z,1.60
2023-03-10T09:47:37.004Z,1.00
2023-03-10T09:48:55.189Z,1.70
2023-03-10T09:50:33.921Z,1.20
2023-03-10T09:51:39.467Z,1.00
2023-03-10T09:52:46.687Z,0.90
2023-03-10T09:53:56.964Z,1.00
2023-03-10T10:49:31.722Z,0.82
2023-03-10T10:51:34.025Z,0.60
2023-03-10T10:52:35.737Z,0.77
2023-03-10T10:53:42.020Z,0.70
2023-03-10T11:55:21.400Z,0.70
2023-03-10T11:56:24.828Z,0.60
2023-03-10T11:57:30.439Z,0.80
2023-03-10T11:58:57.968Z,0.80
2023-03-10T12:00:02.283Z,0.60
2023-03-10T12:01:05.470Z,0.60
2023-03-10T12:02:14.035Z,0.60
2023-03-10T12:03:50.255Z,0.70
2023-03-10T12:04:58.987Z,0.60
2023-03-10T12:06:02.470Z,0.70
2023-03-10T12:07:21.544Z,0.60
2023-03-10T12:08:25.199Z,0.60
2023-03-10T12:09:42.280Z,1.60
2023-03-10T12:10:43.949Z,0.80
2023-03-10T12:11:47.048Z,0.75
2023-03-10T12:12:51.523Z,0.90
2023-03-10T12:13:58.147Z,0.75
2023-03-10T12:15:05.742Z,0.60
2023-03-10T12:16:08.087Z,0.50
2023-03-10T12:17:14.225Z,0.70
2023-03-10T12:18:15.757Z,0.60
2023-03-10T12:19:17.126Z,0.60
2023-03-10T12:20:18.463Z,0.60
2023-03-10T12:21:39.896Z,0.60
2023-03-10T12:22:50.448Z,0.70
2023-03-10T12:23:54.464Z,0.60
2023-03-10T12:24:55.832Z,0.50
2023-03-10T12:25:57.327Z,0.50
2023-03-10T12:27:04.053Z,0.60
2023-03-10T12:28:17.600Z,0.50
2023-03-10T12:29:21.800Z,0.50
2023-03-10T12:30:47.802Z,0.77
2023-03-10T12:31:52.120Z,0.50
2023-03-10T12:32:53.694Z,0.60
2023-03-10T12:34:14.153Z,0.63
2023-03-10T12:35:32.652Z,0.70
2023-03-10T12:36:39.401Z,0.70
2023-03-10T12:37:40.809Z,0.50
2023-03-10T12:38:48.163Z,0.50
2023-03-10T12:39:49.658Z,0.50
2023-03-10T12:40:52.220Z,0.50
2023-03-10T12:42:01.607Z,0.52
2023-03-10T12:43:38.383Z,0.50
2023-03-10T12:44:43.124Z,0.55
2023-03-10T12:45:46.614Z,0.50
2023-03-10T12:47:06.632Z,0.57
2023-03-10T12:48:17.747Z,0.50
2023-03-10T12:49:32.397Z,0.50
2023-03-10T12:50:52.648Z,0.55
2023-03-10T12:52:12.729Z,0.60
2023-03-10T12:53:38.758Z,0.60
2023-03-10T12:54:52.350Z,0.60
2023-03-10T12:56:12.168Z,0.60
2023-03-10T12:57:31.031Z,0.50
2023-03-10T12:58:35.870Z,0.60
2023-03-10T12:59:44.004Z,0.60
2023-03-10T13:00:50.509Z,0.60
2023-03-10T13:01:56.249Z,0.68
2023-03-10T13:03:05.213Z,0.50
2023-03-10T13:04:08.426Z,0.60
2023-03-10T13:05:21.297Z,0.50
2023-03-10T13:06:40.800Z,0.60
2023-03-10T13:07:47.439Z,0.50
2023-03-10T13:08:59.308Z,0.50
2023-03-10T13:10:03.421Z,0.50
2023-03-10T13:11:26.169Z,1.85
2023-03-10T13:12:37.470Z,0.77
2023-03-10T13:13:40.418Z,0.60
2023-03-10T13:14:43.036Z,0.60
2023-03-10T13:15:57.667Z,0.60
2023-03-10T13:17:01.199Z,0.50
2023-03-10T13:18:10.217Z,0.50
2023-03-10T13:19:20.924Z,0.57
2023-03-10T13:32:33.178Z,0.50
2023-03-10T13:33:42.946Z,0.47
2023-03-10T13:34:44.711Z,0.50
2023-03-10T13:35:47.270Z,0.50
2023-03-10T13:36:49.399Z,0.50
2023-03-10T13:38:13.345Z,0.50
2023-03-10T13:39:25.632Z,0.57
2023-03-10T13:40:28.110Z,0.50
2023-03-10T13:41:37.167Z,0.60
2023-03-10T13:42:44.316Z,0.50
2023-03-10T13:43:48.521Z,0.50
2023-03-10T13:44:50.595Z,0.60
2023-03-10T13:45:59.897Z,0.50
2023-03-10T13:47:14.904Z,0.50
2023-03-10T13:48:16.403Z,0.50
2023-03-10T13:49:20.456Z,0.52
2023-03-10T13:50:21.900Z,0.60
2023-03-10T13:51:32.702Z,0.50
2023-03-10T13:52:34.166Z,0.50
2023-03-10T13:53:35.649Z,0.40
2023-03-10T13:54:38.903Z,0.50
2023-03-10T13:55:40.634Z,0.60
2023-03-10T13:56:43.566Z,0.50
2023-03-10T13:57:47.567Z,0.60
2023-03-10T13:58:51.210Z,0.60
2023-03-10T13:59:54.468Z,0.55
2023-03-10T14:00:57.494Z,0.50
2023-03-10T14:02:00.988Z,0.50
2023-03-10T14:03:02.591Z,0.50
2023-03-10T14:04:08.609Z,0.50
2023-03-10T14:05:46.947Z,0.50
2023-03-10T14:07:07.513Z,0.50
2023-03-10T14:08:19.552Z,0.55
2023-03-10T14:09:23.064Z,0.60
2023-03-10T15:48:24.079Z,1.00
2023-03-10T15:49:25.617Z,1.50
2023-03-10T15:50:27.509Z,1.10
2023-03-10T15:51:29.353Z,1.60
2023-03-10T15:52:30.866Z,1.70
2023-03-10T15:53:32.272Z,1.35
2023-03-10T15:54:34.257Z,1.60
2023-03-10T15:55:40.798Z,1.50
2023-03-10T15:56:42.279Z,1.25
2023-03-10T15:57:45.048Z,0.80
2023-03-10T15:58:46.661Z,1.10
2023-03-10T15:59:48.271Z,1.00
2023-03-10T16:00:50.687Z,1.20
2023-03-10T16:01:52.801Z,0.90
2023-03-10T16:02:55.000Z,1.50
2023-03-10T16:03:56.696Z,1.25
2023-03-10T16:04:58.359Z,1.30
2023-03-10T16:05:59.927Z,2.45
2023-03-10T16:07:03.765Z,1.20
2023-03-10T16:08:06.348Z,1.45
2023-03-10T16:09:09.164Z,1.00
2023-03-10T16:10:13.325Z,1.10
2023-03-10T16:11:18.724Z,1.35
